Terminal Aerodrome Forecast
Issued by NWS Wilmington, OH

Current Version | Previous Version | Text Only | Print | Product List | Glossary Off
Versions: 1 2 3 4 5 6 7 8 9 10 11 12 13 14

000
FTUS41 KILN 202300
TAFILN
TAF
KILN 202333Z 2100/2124 22005KT P6SM BKN250
     FM210200 VRB03KT P6SM SCT250
     FM210700 17004KT P6SM BKN200
     FM211500 21008KT P6SM SCT050 BKN150
     FM212000 22012KT P6SM SCT040 OVC100=

USA.gov is the U.S. government's official web portal to all federal, state and local government web resources and services.